Time;durP1;ratioP1;P1;durP2;ratioP2;P2;SDS_P1;SDS_P2;PMS_P1;PMS_P2;Temp;Humidity;BMP_temperature;BMP_pressure;BME280_temperature;BME280_humidity;BME280_pressure;Samples;Min_cycle;Max_cycle;Signal;HPM_P1;HPM_P2
2023/02/07 00:01:32;;;;;;;2.60;1.35;;;2.90;77.40;;;;;;5082072;28;20047;-63
2023/02/07 00:04:00;;;;;;;3.45;1.23;;;2.90;77.40;;;;;;5081093;28;20103;-59
2023/02/07 00:06:29;;;;;;;2.30;1.00;;;2.90;77.20;;;;;;5085270;28;20072;-60
2023/02/07 00:08:58;;;;;;;2.13;1.10;;;2.90;77.30;;;;;;5085005;28;20139;-60
2023/02/07 00:11:25;;;;;;;2.50;1.20;;;2.90;77.40;;;;;;5086705;28;20048;-60
2023/02/07 00:13:54;;;;;;;2.78;1.10;;;2.90;77.20;;;;;;5089220;28;20052;-62
2023/02/07 00:16:24;;;;;;;3.03;1.27;;;2.90;77.20;;;;;;5087494;28;20044;-61
2023/02/07 00:18:52;;;;;;;3.42;1.63;;;2.90;77.20;;;;;;5087638;28;20055;-62
2023/02/07 00:21:21;;;;;;;2.75;1.30;;;2.90;77.30;;;;;;5088036;28;20052;-70
2023/02/07 00:23:49;;;;;;;2.45;1.20;;;2.80;77.10;;;;;;5088036;28;20059;-70
2023/02/07 00:26:17;;;;;;;3.40;1.55;;;2.80;77.50;;;;;;5089255;28;20593;-60
2023/02/07 00:28:45;;;;;;;3.67;1.90;;;2.80;77.70;;;;;;5088840;28;20419;-59
2023/02/07 00:31:17;;;;;;;4.72;1.60;;;2.80;77.60;;;;;;5087817;28;20036;-71
2023/02/07 00:33:46;;;;;;;4.07;1.52;;;2.80;77.40;;;;;;5063366;28;20048;-72
2023/02/07 00:36:15;;;;;;;3.80;1.50;;;2.70;77.30;;;;;;5086387;28;20056;-61
2023/02/07 00:38:42;;;;;;;2.65;1.40;;;2.70;77.40;;;;;;5085633;28;20044;-61
2023/02/07 00:41:13;;;;;;;2.47;1.17;;;2.70;77.10;;;;;;5065388;28;20047;-61
2023/02/07 00:43:40;;;;;;;2.42;1.20;;;2.70;77.30;;;;;;5082127;28;20060;-61
2023/02/07 00:46:07;;;;;;;3.88;1.45;;;2.70;77.30;;;;;;5078538;28;20036;-62
2023/02/07 00:48:34;;;;;;;2.63;1.33;;;2.70;77.30;;;;;;5080804;28;20055;-61
2023/02/07 00:51:03;;;;;;;2.80;1.45;;;2.70;76.90;;;;;;5063112;28;20044;-62
2023/02/07 00:53:30;;;;;;;3.45;1.75;;;2.60;76.90;;;;;;5065343;28;20475;-60
2023/02/07 00:55:58;;;;;;;3.15;1.67;;;2.60;76.90;;;;;;5067728;28;20043;-62
2023/02/07 00:58:25;;;;;;;3.90;1.80;;;2.60;77.00;;;;;;5085594;28;20069;-63
2023/02/07 01:00:52;;;;;;;3.08;1.40;;;2.60;76.90;;;;;;5073624;28;20044;-61
2023/02/07 01:03:19;;;;;;;2.30;1.38;;;2.50;77.00;;;;;;5078593;28;20051;-62
2023/02/07 01:05:47;;;;;;;2.67;1.40;;;2.50;77.20;;;;;;5062274;28;20097;-61
2023/02/07 01:08:16;;;;;;;3.47;1.70;;;2.50;77.20;;;;;;5082777;28;20093;-62
2023/02/07 01:10:44;;;;;;;4.30;1.88;;;2.40;77.00;;;;;;5082349;28;20040;-62
2023/02/07 01:13:13;;;;;;;4.18;2.03;;;2.40;77.10;;;;;;5083012;28;20617;-62
2023/02/07 01:15:41;;;;;;;3.50;1.73;;;2.40;77.00;;;;;;5080904;28;20040;-61
2023/02/07 01:18:09;;;;;;;4.25;2.20;;;2.40;77.10;;;;;;5065076;28;20131;-62
2023/02/07 01:20:36;;;;;;;3.05;1.95;;;2.30;76.80;;;;;;5064385;28;21316;-67
2023/02/07 01:23:04;;;;;;;4.10;2.22;;;2.40;76.90;;;;;;5084223;28;20169;-66
2023/02/07 01:25:33;;;;;;;3.38;1.67;;;2.30;76.70;;;;;;5082569;28;20052;-66
2023/02/07 01:28:00;;;;;;;3.58;1.95;;;2.30;76.80;;;;;;5083307;28;20534;-66
2023/02/07 01:30:29;;;;;;;4.20;2.28;;;2.30;77.00;;;;;;5078232;28;20113;-67
2023/02/07 01:32:56;;;;;;;3.85;2.03;;;2.30;77.10;;;;;;5075578;28;20149;-67
2023/02/07 01:35:24;;;;;;;4.70;2.35;;;2.20;77.20;;;;;;5079632;28;20109;-68
2023/02/07 01:37:54;;;;;;;4.28;2.05;;;2.10;77.50;;;;;;5064428;28;20044;-71
2023/02/07 01:40:21;;;;;;;4.72;2.25;;;2.10;77.60;;;;;;5081060;28;20040;-71
2023/02/07 01:42:50;;;;;;;4.68;2.35;;;2.20;77.60;;;;;;5081779;28;20542;-62
2023/02/07 01:45:25;;;;;;;4.38;2.22;;;2.10;77.80;;;;;;5082582;28;20047;-62
2023/02/07 01:47:53;;;;;;;5.38;2.35;;;2.00;77.80;;;;;;5084516;28;20106;-62
2023/02/07 01:50:21;;;;;;;4.45;2.63;;;2.00;77.60;;;;;;5082328;28;20051;-61
2023/02/07 01:52:49;;;;;;;4.50;2.40;;;2.00;77.60;;;;;;5060247;28;20127;-70
2023/02/07 01:55:21;;;;;;;4.68;2.60;;;2.00;77.50;;;;;;5082035;28;20039;-70
2023/02/07 01:57:50;;;;;;;5.07;2.60;;;2.00;77.40;;;;;;5084427;28;20399;-70
2023/02/07 02:00:17;;;;;;;5.82;2.60;;;2.00;77.50;;;;;;5065003;28;20040;-71
2023/02/07 02:02:45;;;;;;;5.50;3.03;;;2.00;77.50;;;;;;5082971;28;20056;-71
2023/02/07 02:05:14;;;;;;;6.38;3.15;;;2.00;77.40;;;;;;5082700;28;20123;-71
2023/02/07 02:07:42;;;;;;;6.30;2.97;;;1.90;77.50;;;;;;5063134;28;20048;-60
2023/02/07 02:10:15;;;;;;;4.57;2.75;;;1.90;77.70;;;;;;5065599;28;20115;-60
2023/02/07 02:12:57;;;;;;;5.22;3.20;;;1.80;77.90;;;;;;5083495;28;20126;-66
2023/02/07 02:15:35;;;;;;;5.50;3.00;;;1.80;78.00;;;;;;5082169;28;20409;-65
2023/02/07 02:18:22;;;;;;;4.95;2.90;;;1.80;78.00;;;;;;5060357;28;20056;-66
2023/02/07 02:21:17;;;;;;;5.60;2.72;;;1.80;77.90;;;;;;5078340;28;20083;-62
2023/02/07 02:23:58;;;;;;;5.80;2.92;;;1.80;78.00;;;;;;5080818;28;20052;-62
2023/02/07 02:26:49;;;;;;;6.53;3.13;;;1.80;77.90;;;;;;5084461;28;20051;-72
2023/02/07 02:29:53;;;;;;;6.30;3.50;;;1.70;77.50;;;;;;5084229;28;20052;-71
2023/02/07 02:32:49;;;;;;;6.07;3.15;;;1.80;77.60;;;;;;5061050;28;20048;-61
2023/02/07 02:35:22;;;;;;;5.88;3.28;;;1.70;77.80;;;;;;5085033;28;20502;-60
2023/02/07 02:37:57;;;;;;;5.90;3.20;;;1.70;78.00;;;;;;5084781;28;20049;-68
2023/02/07 02:40:31;;;;;;;6.07;3.67;;;1.70;78.00;;;;;;5083324;28;20059;-67
2023/02/07 02:43:04;;;;;;;6.28;3.35;;;1.70;78.00;;;;;;5065979;28;20044;-67
2023/02/07 02:45:36;;;;;;;7.22;3.85;;;1.60;78.10;;;;;;5083676;28;20044;-66
2023/02/07 02:48:05;;;;;;;6.20;3.47;;;1.60;78.10;;;;;;5067631;28;20044;-67
2023/02/07 02:50:35;;;;;;;8.30;4.70;;;1.60;78.10;;;;;;5063276;28;20101;-66
2023/02/07 02:53:06;;;;;;;6.70;3.80;;;1.60;78.00;;;;;;5085497;28;20479;-67
2023/02/07 02:55:56;;;;;;;7.70;4.28;;;1.50;78.00;;;;;;5054909;28;20071;-69
2023/02/07 02:58:32;;;;;;;6.27;4.03;;;1.50;77.90;;;;;;5060362;28;20048;-71
2023/02/07 03:01:09;;;;;;;7.13;4.00;;;1.50;78.00;;;;;;5067643;28;20098;-72
2023/02/07 03:04:14;;;;;;;8.25;4.18;;;1.40;78.30;;;;;;5067830;28;20044;-71
2023/02/07 03:07:01;;;;;;;9.23;4.68;;;1.40;78.40;;;;;;5057806;28;20055;-62
2023/02/07 03:09:37;;;;;;;8.13;3.75;;;1.40;78.20;;;;;;5065613;28;20040;-62
2023/02/07 03:12:14;;;;;;;8.13;4.50;;;1.30;78.40;;;;;;5052154;28;20040;-62
2023/02/07 03:14:48;;;;;;;8.65;4.60;;;1.30;78.30;;;;;;5063051;28;20064;-66
2023/02/07 03:17:22;;;;;;;7.38;4.32;;;1.30;78.30;;;;;;5078369;28;20048;-62
2023/02/07 03:19:54;;;;;;;7.25;4.25;;;1.30;77.90;;;;;;5082227;28;20454;-64
2023/02/07 03:22:26;;;;;;;9.13;4.95;;;1.30;77.80;;;;;;5070808;28;20055;-62
2023/02/07 03:24:56;;;;;;;8.93;5.03;;;1.30;77.80;;;;;;5067494;28;20044;-63
2023/02/07 03:27:27;;;;;;;9.20;5.45;;;1.30;77.60;;;;;;5069989;28;20605;-63
2023/02/07 03:29:57;;;;;;;11.03;5.83;;;1.30;77.60;;;;;;5083952;28;20066;-62
2023/02/07 03:32:29;;;;;;;11.50;5.45;;;1.30;77.60;;;;;;5084870;28;20071;-66
2023/02/07 03:35:00;;;;;;;9.50;5.18;;;1.30;77.60;;;;;;5086002;28;20044;-66
2023/02/07 03:37:33;;;;;;;8.40;4.70;;;1.30;77.60;;;;;;5083233;28;20052;-63
2023/02/07 03:40:00;;;;;;;9.68;5.40;;;1.20;77.70;;;;;;5085749;28;20047;-63
2023/02/07 03:42:31;;;;;;;8.50;4.85;;;1.10;77.90;;;;;;5081137;28;20058;-61
2023/02/07 03:44:59;;;;;;;;;;;1.10;77.80;;;;;;5087707;28;21755;-63
2023/02/07 03:47:27;;;;;;;10.63;5.00;;;1.10;78.10;;;;;;5083202;28;19928;-62
2023/02/07 03:49:54;;;;;;;10.88;5.18;;;1.00;78.10;;;;;;5088161;28;20047;-62
2023/02/07 03:52:21;;;;;;;9.93;5.45;;;1.10;78.00;;;;;;5086444;28;20621;-64
2023/02/07 03:54:49;;;;;;;9.52;5.47;;;1.00;78.10;;;;;;5088650;28;20059;-65
2023/02/07 03:57:16;;;;;;;9.00;5.32;;;1.00;78.20;;;;;;5087207;28;20056;-63
2023/02/07 03:59:43;;;;;;;10.43;5.80;;;0.90;78.20;;;;;;5086508;28;20048;-61
2023/02/07 04:02:10;;;;;;;10.00;5.47;;;1.00;78.10;;;;;;5083487;28;20525;-62
2023/02/07 04:04:37;;;;;;;10.73;5.10;;;1.00;78.20;;;;;;5080325;28;20067;-61
2023/02/07 04:07:04;;;;;;;9.55;4.95;;;0.90;78.20;;;;;;5082747;28;20048;-62
2023/02/07 04:09:31;;;;;;;11.52;5.75;;;0.90;78.30;;;;;;5084286;28;20051;-61
2023/02/07 04:11:59;;;;;;;11.10;5.65;;;0.80;78.20;;;;;;5084596;28;20052;-62
2023/02/07 04:14:26;;;;;;;10.90;6.03;;;0.80;78.40;;;;;;5079971;28;20072;-63
2023/02/07 04:16:53;;;;;;;10.95;6.43;;;0.80;78.40;;;;;;5082324;28;20665;-59
2023/02/07 04:19:20;;;;;;;12.65;6.13;;;0.80;78.10;;;;;;5082154;28;20040;-59
2023/02/07 04:21:50;;;;;;;11.75;5.65;;;0.80;78.10;;;;;;5076929;28;20747;-58
2023/02/07 04:24:17;;;;;;;12.85;6.50;;;0.80;78.00;;;;;;5088595;28;20047;-60
2023/02/07 04:26:44;;;;;;;10.38;5.32;;;0.80;78.10;;;;;;5079869;28;20040;-62
2023/02/07 04:29:12;;;;;;;10.98;6.43;;;0.70;78.10;;;;;;5081642;28;20047;-61
2023/02/07 04:31:44;;;;;;;10.48;5.88;;;0.70;78.00;;;;;;5073129;28;20047;-70
2023/02/07 04:34:11;;;;;;;10.68;6.00;;;0.70;78.10;;;;;;5082065;28;20386;-71
2023/02/07 04:36:38;;;;;;;12.00;5.97;;;0.70;78.20;;;;;;5085234;28;20121;-62
2023/02/07 04:39:05;;;;;;;12.95;6.55;;;0.70;77.80;;;;;;5086227;28;20090;-62
2023/02/07 04:41:33;;;;;;;11.25;5.75;;;0.70;77.90;;;;;;5087592;28;20047;-64
2023/02/07 04:44:00;;;;;;;10.15;6.10;;;0.70;77.90;;;;;;5073461;28;20058;-64
2023/02/07 04:46:31;;;;;;;11.35;6.18;;;0.80;78.00;;;;;;5080376;28;20154;-65
2023/02/07 04:48:58;;;;;;;10.55;6.30;;;0.70;78.00;;;;;;5080907;28;20044;-65
2023/02/07 04:51:25;;;;;;;10.98;6.38;;;0.60;78.20;;;;;;5074242;28;20052;-62
2023/02/07 04:53:52;;;;;;;11.45;6.30;;;0.60;78.30;;;;;;5076012;28;20043;-62
2023/02/07 04:56:19;;;;;;;11.10;5.93;;;0.60;78.40;;;;;;5078767;28;20445;-70
2023/02/07 04:58:46;;;;;;;12.88;6.82;;;0.60;78.30;;;;;;5083730;28;20576;-70
2023/02/07 05:01:12;;;;;;;11.25;6.55;;;0.60;78.30;;;;;;5083405;28;20043;-65
2023/02/07 05:03:41;;;;;;;12.35;6.93;;;0.60;78.10;;;;;;5084257;28;20068;-65
2023/02/07 05:06:08;;;;;;;12.65;7.07;;;0.60;78.30;;;;;;5079543;28;20422;-70
2023/02/07 05:08:36;;;;;;;12.10;6.05;;;0.60;78.20;;;;;;5077674;28;20048;-69
2023/02/07 05:11:03;;;;;;;12.65;6.97;;;0.60;78.20;;;;;;5081349;28;20574;-64
2023/02/07 05:13:30;;;;;;;12.27;7.32;;;0.60;78.10;;;;;;5081891;28;20040;-64
2023/02/07 05:15:57;;;;;;;11.18;6.30;;;0.60;78.30;;;;;;5076274;28;20071;-71
2023/02/07 05:18:24;;;;;;;11.90;6.57;;;0.50;78.30;;;;;;5082829;28;20056;-71
2023/02/07 05:20:53;;;;;;;12.98;7.55;;;0.60;78.10;;;;;;5083482;28;20422;-59
2023/02/07 05:23:20;;;;;;;12.50;6.78;;;0.50;78.10;;;;;;5085113;28;20056;-59
2023/02/07 05:25:48;;;;;;;12.27;7.00;;;0.50;78.10;;;;;;5084803;28;20052;-71
2023/02/07 05:28:16;;;;;;;12.25;7.10;;;0.50;77.90;;;;;;5081586;28;20052;-72
2023/02/07 05:30:43;;;;;;;11.90;6.80;;;0.50;77.90;;;;;;5073882;28;20055;-64
2023/02/07 05:33:09;;;;;;;12.73;7.15;;;0.50;78.00;;;;;;5077379;28;20755;-64
2023/02/07 05:35:38;;;;;;;14.55;6.97;;;0.60;77.90;;;;;;5084083;28;20440;-64
2023/02/07 05:38:09;;;;;;;15.18;7.35;;;0.60;77.70;;;;;;5085467;28;20056;-64
2023/02/07 05:40:37;;;;;;;13.63;8.05;;;0.60;77.50;;;;;;5083749;28;20063;-62
2023/02/07 05:43:05;;;;;;;14.95;8.00;;;0.50;77.70;;;;;;5087397;28;20036;-59
2023/02/07 05:45:32;;;;;;;12.45;7.07;;;0.50;77.90;;;;;;5085622;28;20047;-60
2023/02/07 05:48:00;;;;;;;13.57;7.80;;;0.50;77.80;;;;;;5083065;28;20051;-60
2023/02/07 05:50:28;;;;;;;13.20;7.70;;;0.50;77.80;;;;;;5082474;28;20046;-59
2023/02/07 05:53:07;;;;;;;15.68;8.00;;;0.40;77.80;;;;;;5087543;28;20052;-60
2023/02/07 05:55:34;;;;;;;14.65;7.88;;;0.50;77.80;;;;;;5084816;28;20040;-60
2023/02/07 05:58:00;;;;;;;13.68;7.38;;;0.40;77.90;;;;;;5086722;28;20067;-59
2023/02/07 06:00:27;;;;;;;13.52;7.32;;;0.30;78.10;;;;;;5082666;28;20105;-59
2023/02/07 06:02:54;;;;;;;14.35;7.53;;;0.40;78.20;;;;;;5084920;28;20411;-72
2023/02/07 06:05:21;;;;;;;14.50;7.32;;;0.30;78.00;;;;;;5082918;28;20043;-70
2023/02/07 06:07:53;;;;;;;13.63;7.43;;;0.30;77.90;;;;;;5084877;28;20133;-71
2023/02/07 06:10:21;;;;;;;14.52;7.68;;;0.40;77.80;;;;;;5084970;28;20044;-71
2023/02/07 06:12:48;;;;;;;12.93;7.28;;;0.40;77.80;;;;;;5088629;28;20226;-61
2023/02/07 06:15:15;;;;;;;14.13;7.22;;;0.40;77.80;;;;;;5081593;28;20048;-61
2023/02/07 06:17:42;;;;;;;14.98;7.82;;;0.40;77.60;;;;;;5085909;28;20955;-59
2023/02/07 06:20:10;;;;;;;12.98;7.65;;;0.40;77.40;;;;;;5085604;28;20040;-63
2023/02/07 06:22:37;;;;;;;13.85;8.13;;;0.30;77.40;;;;;;5086640;28;20052;-58
2023/02/07 06:25:04;;;;;;;15.35;7.90;;;0.20;77.40;;;;;;5077512;28;20047;-59
2023/02/07 06:27:33;;;;;;;14.10;7.55;;;0.30;77.30;;;;;;5084158;28;20036;-60
2023/02/07 06:30:06;;;;;;;13.85;7.25;;;0.30;77.10;;;;;;5084039;28;20093;-60
2023/02/07 06:32:33;;;;;;;13.77;7.30;;;0.20;77.10;;;;;;5084033;28;20098;-61
2023/02/07 06:35:00;;;;;;;14.52;7.80;;;0.20;77.40;;;;;;5082289;28;20056;-62
2023/02/07 06:37:28;;;;;;;14.95;8.07;;;0.20;77.50;;;;;;5080738;28;20131;-62
2023/02/07 06:39:54;;;;;;;14.68;8.63;;;0.20;77.50;;;;;;5079400;28;20052;-61
2023/02/07 06:42:21;;;;;;;15.43;8.07;;;0.20;77.60;;;;;;5083624;28;20055;-61
2023/02/07 06:44:51;;;;;;;11.82;6.93;;;0.20;77.40;;;;;;5085771;28;20406;-62
2023/02/07 06:47:19;;;;;;;14.52;7.43;;;0.20;77.40;;;;;;5086858;28;20048;-64
2023/02/07 06:49:47;;;;;;;15.00;8.23;;;0.20;77.50;;;;;;5078842;28;20635;-64
2023/02/07 06:52:14;;;;;;;14.30;7.78;;;0.10;77.40;;;;;;5085412;28;20050;-65
2023/02/07 06:54:42;;;;;;;12.82;7.47;;;0.10;77.20;;;;;;5085766;28;20047;-64
2023/02/07 06:57:09;;;;;;;15.13;8.10;;;0.10;77.30;;;;;;5086749;28;20040;-62
2023/02/07 06:59:36;;;;;;;16.13;8.50;;;0.10;77.30;;;;;;5085354;28;20122;-61
2023/02/07 07:02:04;;;;;;;15.98;8.65;;;0.10;77.20;;;;;;5088630;28;20045;-67
2023/02/07 07:04:31;;;;;;;14.20;8.00;;;0.10;77.20;;;;;;5086417;28;20044;-66
2023/02/07 07:06:58;;;;;;;15.60;8.48;;;0.10;76.90;;;;;;5087278;28;20052;-61
2023/02/07 07:09:25;;;;;;;16.63;7.95;;;0.10;77.00;;;;;;5089350;28;20054;-62
2023/02/07 07:11:51;;;;;;;13.38;8.05;;;0.20;76.90;;;;;;5089577;28;20047;-61
2023/02/07 07:14:18;;;;;;;17.05;8.80;;;0.20;76.70;;;;;;5087640;28;20431;-61
2023/02/07 07:16:45;;;;;;;14.30;7.72;;;0.10;76.80;;;;;;5086351;28;20048;-67
2023/02/07 07:19:14;;;;;;;15.85;8.25;;;0.10;76.90;;;;;;5089943;28;20048;-66
2023/02/07 07:21:40;;;;;;;14.73;7.80;;;0.10;76.80;;;;;;5088069;28;20134;-65
2023/02/07 07:24:08;;;;;;;17.17;8.88;;;0.10;76.40;;;;;;5084730;28;20059;-65
2023/02/07 07:26:35;;;;;;;16.40;8.75;;;0.20;76.50;;;;;;5088002;28;20052;-65
2023/02/07 07:29:03;;;;;;;17.17;9.23;;;0.10;76.70;;;;;;5089504;28;20418;-65
2023/02/07 07:31:30;;;;;;;14.23;8.80;;;0.10;76.70;;;;;;5087277;28;20553;-71
2023/02/07 07:33:58;;;;;;;20.70;9.45;;;0.10;76.60;;;;;;5087633;28;20126;-71
2023/02/07 07:36:27;;;;;;;16.13;8.75;;;0.10;76.40;;;;;;5087778;28;20082;-61
2023/02/07 07:38:54;;;;;;;14.98;8.73;;;0.10;76.80;;;;;;5088228;28;20043;-61
2023/02/07 07:41:21;;;;;;;17.15;9.07;;;0.10;76.70;;;;;;5088832;28;20040;-65
2023/02/07 07:43:49;;;;;;;17.38;9.48;;;0.20;76.60;;;;;;5089342;28;20501;-65
2023/02/07 07:46:16;;;;;;;16.13;10.18;;;0.20;76.50;;;;;;5083011;28;20044;-65
2023/02/07 07:48:43;;;;;;;21.25;10.50;;;0.20;76.50;;;;;;5088150;28;20503;-65
2023/02/07 07:51:10;;;;;;;18.00;10.30;;;0.30;76.10;;;;;;5084413;28;20596;-64
2023/02/07 07:53:39;;;;;;;20.80;11.15;;;0.30;76.20;;;;;;5083958;28;20063;-64
2023/02/07 07:56:06;;;;;;;20.02;10.45;;;0.20;76.10;;;;;;5088579;28;20585;-71
2023/02/07 07:58:33;;;;;;;19.05;10.77;;;0.20;76.10;;;;;;5086444;28;20050;-70
2023/02/07 08:01:00;;;;;;;16.40;10.55;;;0.20;76.30;;;;;;5085075;28;20055;-61
2023/02/07 08:03:27;;;;;;;17.05;9.80;;;0.30;76.20;;;;;;5083625;28;20055;-61
2023/02/07 08:05:54;;;;;;;20.00;9.93;;;0.30;76.20;;;;;;5082439;28;20498;-64
2023/02/07 08:08:21;;;;;;;16.02;9.38;;;0.30;76.30;;;;;;5085526;28;20056;-65
2023/02/07 08:10:49;;;;;;;15.75;9.05;;;0.30;76.20;;;;;;5088470;28;20043;-62
2023/02/07 08:13:18;;;;;;;15.77;8.77;;;0.30;76.20;;;;;;5088222;28;20135;-61
2023/02/07 08:15:45;;;;;;;14.63;9.23;;;0.20;76.20;;;;;;5089707;28;20040;-61
2023/02/07 08:18:12;;;;;;;17.27;9.43;;;0.20;76.20;;;;;;5086858;28;20410;-61
2023/02/07 08:20:39;;;;;;;16.10;9.48;;;0.30;76.30;;;;;;5088540;28;20040;-65
2023/02/07 08:23:06;;;;;;;15.90;9.73;;;0.30;76.30;;;;;;5086287;28;20052;-65
2023/02/07 08:25:33;;;;;;;17.23;9.98;;;0.30;76.20;;;;;;5089802;28;20050;-64
2023/02/07 08:28:02;;;;;;;16.73;9.48;;;0.30;75.80;;;;;;5088686;28;20063;-64
2023/02/07 08:30:29;;;;;;;17.50;9.88;;;0.30;75.50;;;;;;5086581;28;20051;-65
2023/02/07 08:32:57;;;;;;;17.10;9.18;;;0.30;75.50;;;;;;5089462;28;20436;-65
2023/02/07 08:35:25;;;;;;;19.67;9.15;;;0.40;75.70;;;;;;5083684;28;20040;-65
2023/02/07 08:37:52;;;;;;;16.63;9.13;;;0.40;75.70;;;;;;5084033;28;20048;-71
2023/02/07 08:40:19;;;;;;;17.70;9.25;;;0.40;75.70;;;;;;5086138;28;20672;-72
2023/02/07 08:42:46;;;;;;;13.95;8.30;;;0.40;75.40;;;;;;5082953;28;20052;-61
2023/02/07 08:45:14;;;;;;;13.18;8.70;;;0.40;75.60;;;;;;5083347;28;20052;-60
2023/02/07 08:47:41;;;;;;;16.90;9.50;;;0.40;75.60;;;;;;5083951;28;20063;-73
2023/02/07 08:50:09;;;;;;;17.38;9.02;;;0.50;75.60;;;;;;5085070;28;20051;-71
2023/02/07 08:52:38;;;;;;;17.30;9.57;;;0.50;75.60;;;;;;5084461;28;20108;-65
2023/02/07 08:55:06;;;;;;;17.95;9.20;;;0.60;75.50;;;;;;5088250;28;20039;-66
2023/02/07 08:57:33;;;;;;;17.65;9.32;;;0.60;75.30;;;;;;5087585;28;20044;-66
2023/02/07 09:00:00;;;;;;;17.77;9.40;;;0.60;75.30;;;;;;5083664;28;20040;-67
2023/02/07 09:02:29;;;;;;;19.83;9.88;;;0.60;75.50;;;;;;5085069;28;20483;-72
2023/02/07 09:04:56;;;;;;;17.60;9.50;;;0.60;75.40;;;;;;5087882;28;20048;-72
2023/02/07 09:07:23;;;;;;;16.90;9.95;;;0.60;75.30;;;;;;5085593;28;20054;-69
2023/02/07 09:09:50;;;;;;;16.05;8.88;;;0.70;75.40;;;;;;5084119;28;20047;-72
2023/02/07 09:12:17;;;;;;;35.30;19.73;;;0.70;75.20;;;;;;5087243;28;20040;-72
2023/02/07 09:14:44;;;;;;;36.00;19.08;;;0.70;75.40;;;;;;5086747;28;20051;-70
2023/02/07 09:17:11;;;;;;;30.92;16.48;;;0.70;75.30;;;;;;5086699;28;20048;-72
2023/02/07 09:19:39;;;;;;;24.50;13.70;;;0.70;74.90;;;;;;5082007;28;20067;-70
2023/02/07 09:22:06;;;;;;;23.63;13.18;;;0.70;75.00;;;;;;5085115;28;20135;-71
2023/02/07 09:24:33;;;;;;;22.15;12.73;;;0.70;75.10;;;;;;5084942;28;20044;-71
2023/02/07 09:27:01;;;;;;;20.73;10.68;;;0.80;75.20;;;;;;5085038;28;20064;-71
2023/02/07 09:29:28;;;;;;;20.77;9.93;;;0.80;75.00;;;;;;5079690;28;20507;-72
2023/02/07 09:31:55;;;;;;;14.68;9.10;;;0.80;75.00;;;;;;5085315;28;20048;-72
2023/02/07 09:34:23;;;;;;;18.80;9.88;;;0.80;74.90;;;;;;5087805;28;20066;-71
2023/02/07 09:36:51;;;;;;;17.75;10.30;;;0.80;74.80;;;;;;5086968;28;20048;-73
2023/02/07 09:39:19;;;;;;;18.13;9.80;;;0.90;74.90;;;;;;5084415;28;20051;-72
2023/02/07 09:41:57;;;;;;;21.60;10.75;;;0.90;75.00;;;;;;5084583;28;20556;-72
2023/02/07 09:44:44;;;;;;;17.80;10.05;;;1.00;75.00;;;;;;5080020;28;20048;-71
2023/02/07 09:47:13;;;;;;;18.90;9.80;;;1.10;74.60;;;;;;5082821;28;20036;-72
2023/02/07 09:49:45;;;;;;;16.63;10.43;;;1.20;74.70;;;;;;5084699;28;20197;-71
2023/02/07 09:52:18;;;;;;;15.75;8.98;;;1.20;74.70;;;;;;5083280;28;20044;-71
2023/02/07 09:54:51;;;;;;;16.73;9.85;;;1.30;74.70;;;;;;5087185;28;20063;-73
2023/02/07 09:57:21;;;;;;;16.10;8.90;;;1.40;74.20;;;;;;5086153;28;20050;-71
2023/02/07 09:59:54;;;;;;;15.55;8.90;;;1.50;73.60;;;;;;5086897;28;20052;-72
2023/02/07 10:02:27;;;;;;;17.55;9.38;;;1.50;73.90;;;;;;5086912;28;20048;-71
2023/02/07 10:05:06;;;;;;;16.45;8.93;;;1.60;73.80;;;;;;5088150;28;20044;-70
2023/02/07 10:07:34;;;;;;;12.27;7.57;;;1.70;73.40;;;;;;5086710;28;20044;-71
2023/02/07 10:10:01;;;;;;;18.75;11.02;;;1.70;73.10;;;;;;5087152;28;20048;-71
2023/02/07 10:12:51;;;;;;;16.98;9.65;;;1.70;73.10;;;;;;5087579;28;20048;-70
2023/02/07 10:15:39;;;;;;;17.20;8.68;;;1.80;72.70;;;;;;5084505;28;20046;-71
2023/02/07 10:18:28;;;;;;;15.88;8.77;;;1.80;72.40;;;;;;5080970;28;20385;-70
2023/02/07 10:21:04;;;;;;;17.23;8.77;;;1.90;72.30;;;;;;5079551;28;20056;-72
2023/02/07 10:23:44;;;;;;;13.48;7.90;;;2.00;72.30;;;;;;5062841;28;20418;-72
2023/02/07 10:26:16;;;;;;;16.85;8.63;;;2.10;71.50;;;;;;5083447;28;20060;-72
2023/02/07 10:29:11;;;;;;;15.25;8.63;;;2.20;72.60;;;;;;5083712;28;20056;-72
2023/02/07 10:31:40;;;;;;;15.80;8.38;;;2.30;71.70;;;;;;5083662;28;20060;-71
2023/02/07 10:34:13;;;;;;;15.27;9.07;;;2.40;71.30;;;;;;5084023;28;20424;-70
2023/02/07 10:36:45;;;;;;;15.20;7.90;;;2.40;71.20;;;;;;5085028;28;20048;-71
2023/02/07 10:39:21;;;;;;;14.88;8.18;;;2.50;71.30;;;;;;5085849;28;20037;-72
2023/02/07 10:41:48;;;;;;;16.20;8.07;;;2.50;70.70;;;;;;5085455;28;20047;-71
2023/02/07 10:44:18;;;;;;;15.90;8.15;;;2.60;70.00;;;;;;5091655;28;20762;-72
2023/02/07 10:46:50;;;;;;;12.77;7.82;;;2.60;69.80;;;;;;5092297;28;20048;-72
2023/02/07 10:49:20;;;;;;;16.73;8.18;;;2.70;69.40;;;;;;5090173;28;20066;-71
2023/02/07 10:51:48;;;;;;;11.73;6.95;;;2.70;69.20;;;;;;5090118;28;20498;-72
2023/02/07 10:54:19;;;;;;;10.90;6.68;;;2.70;69.00;;;;;;5090090;28;20061;-71
2023/02/07 10:56:51;;;;;;;13.20;7.05;;;2.70;68.60;;;;;;5091194;28;20075;-71
2023/02/07 10:59:46;;;;;;;16.85;7.43;;;2.80;67.60;;;;;;5090917;28;20048;-72
2023/02/07 11:02:47;;;;;;;12.10;7.30;;;2.80;68.90;;;;;;5032802;28;20052;-72
2023/02/07 11:05:55;;;;;;;11.43;6.95;;;2.80;69.10;;;;;;5037483;28;20051;-70
2023/02/07 11:08:25;;;;;;;12.98;6.63;;;2.80;68.60;;;;;;5020233;28;20122;-71
2023/02/07 11:10:55;;;;;;;13.25;7.10;;;2.90;68.70;;;;;;5018854;28;20069;-71
2023/02/07 11:13:24;;;;;;;15.35;7.38;;;2.90;69.30;;;;;;5056812;28;20371;-71
2023/02/07 11:15:56;;;;;;;13.25;7.25;;;3.00;69.40;;;;;;5090783;28;20048;-72
2023/02/07 11:18:36;;;;;;;13.05;6.55;;;3.00;69.20;;;;;;5091154;28;20105;-70
2023/02/07 11:21:06;;;;;;;11.55;6.38;;;3.10;69.00;;;;;;5089440;28;20414;-71
2023/02/07 11:23:36;;;;;;;11.63;6.68;;;3.10;68.50;;;;;;5089527;28;20044;-72
2023/02/07 11:26:05;;;;;;;14.93;6.50;;;3.10;68.00;;;;;;5085468;28;20062;-71
2023/02/07 11:28:33;;;;;;;10.05;5.78;;;3.10;68.00;;;;;;5088979;28;20048;-71
2023/02/07 11:31:05;;;;;;;10.25;6.00;;;3.20;68.20;;;;;;5090697;28;20036;-71
2023/02/07 11:33:36;;;;;;;10.93;5.45;;;3.20;67.60;;;;;;5089822;28;20048;-71
2023/02/07 11:36:09;;;;;;;11.63;6.07;;;3.20;68.00;;;;;;5089267;28;20044;-72
2023/02/07 11:38:38;;;;;;;10.63;5.50;;;3.20;67.20;;;;;;5084163;28;20094;-70
2023/02/07 11:41:17;;;;;;;10.45;5.45;;;3.20;67.50;;;;;;5089559;28;20067;-71
2023/02/07 11:43:56;;;;;;;9.90;5.15;;;3.20;66.40;;;;;;5090256;28;20048;-71
2023/02/07 11:46:35;;;;;;;10.10;5.60;;;3.30;66.40;;;;;;5090851;28;20495;-71
2023/02/07 11:49:07;;;;;;;11.40;5.10;;;3.20;66.50;;;;;;5090631;28;20130;-72
2023/02/07 11:51:36;;;;;;;9.65;5.30;;;3.20;66.20;;;;;;5071747;28;20449;-73
2023/02/07 11:54:06;;;;;;;9.52;5.25;;;3.30;65.90;;;;;;5088387;28;20053;-72
2023/02/07 11:56:40;;;;;;;10.90;5.57;;;3.20;65.50;;;;;;5090245;28;20044;-72
2023/02/07 11:59:14;;;;;;;11.68;5.72;;;3.20;65.50;;;;;;5089468;28;20457;-72
2023/02/07 12:01:43;;;;;;;8.73;4.63;;;3.20;65.60;;;;;;5091329;28;20051;-72
2023/02/07 12:04:15;;;;;;;9.68;5.10;;;3.30;65.50;;;;;;5088261;28;20453;-72
2023/02/07 12:06:46;;;;;;;10.77;5.20;;;3.20;66.80;;;;;;5088959;28;20101;-72
2023/02/07 12:09:23;;;;;;;9.27;4.97;;;3.30;65.90;;;;;;5089825;28;20052;-71
2023/02/07 12:11:55;;;;;;;9.30;5.03;;;3.30;65.80;;;;;;5089542;28;20048;-71
2023/02/07 12:14:27;;;;;;;9.98;4.95;;;3.30;65.50;;;;;;5089901;28;20058;-72
2023/02/07 12:16:58;;;;;;;8.77;4.82;;;3.30;64.70;;;;;;5088995;28;20056;-72
2023/02/07 12:19:29;;;;;;;8.10;4.43;;;3.20;64.90;;;;;;5089393;28;20109;-71
2023/02/07 12:22:03;;;;;;;9.82;4.78;;;3.20;64.90;;;;;;5088421;28;20059;-71
2023/02/07 12:24:35;;;;;;;9.43;5.32;;;3.20;64.00;;;;;;5088954;28;20043;-72
2023/02/07 12:27:10;;;;;;;10.18;4.35;;;3.20;64.40;;;;;;5089721;28;20583;-73
2023/02/07 12:29:52;;;;;;;9.20;4.90;;;3.30;65.30;;;;;;5087730;28;20052;-71
2023/02/07 12:32:26;;;;;;;11.57;4.38;;;3.30;65.20;;;;;;5088746;28;20036;-71
2023/02/07 12:34:58;;;;;;;9.60;4.47;;;3.20;64.90;;;;;;5088492;28;20052;-70
2023/02/07 12:37:31;;;;;;;8.23;4.57;;;3.30;65.00;;;;;;5087955;28;20043;-72
2023/02/07 12:40:04;;;;;;;9.45;4.38;;;3.30;65.30;;;;;;5089282;28;20050;-72
2023/02/07 12:42:39;;;;;;;8.98;4.68;;;3.30;64.60;;;;;;5088624;28;20467;-72
2023/02/07 12:45:13;;;;;;;7.90;4.28;;;3.30;64.60;;;;;;5085977;28;20043;-71
2023/02/07 12:47:55;;;;;;;6.95;3.92;;;3.30;64.60;;;;;;5090318;28;20138;-71
2023/02/07 12:50:30;;;;;;;9.35;4.45;;;3.20;64.80;;;;;;5088534;28;20048;-73
2023/02/07 12:53:08;;;;;;;8.48;3.90;;;3.20;64.00;;;;;;5088766;28;20975;-70
2023/02/07 12:55:45;;;;;;;6.40;3.53;;;3.20;64.80;;;;;;5089023;28;20044;-71
2023/02/07 12:58:38;;;;;;;9.75;3.75;;;3.20;64.40;;;;;;5089363;28;20048;-71
2023/02/07 13:01:15;;;;;;;9.02;4.00;;;3.20;63.40;;;;;;5088151;28;20056;-72
2023/02/07 13:03:57;;;;;;;8.93;3.92;;;3.30;63.40;;;;;;5089352;28;20048;-72
2023/02/07 13:06:38;;;;;;;7.40;3.83;;;3.30;63.20;;;;;;5087638;28;20060;-71
2023/02/07 13:09:09;;;;;;;;;;;3.20;64.30;;;;;;5089999;28;20499;-73